Macatuba, Brazil
Current Conditions -  °F | °C
As of 12:00 PM on Thursday 23 Oct 2014 (Local Time) from SBBU Reporting Station
Clear Clear  
Wind Chill: 81°   Ceiling: Unl
Heat Index: 83°   Visibility: 6mi
Dew Point: 68°   Wind: 10mph
Humidity: 65%   Direction: 50°NE
Pressure: 30.09"   Gusts: NA
Location:  22.5°S, 48.71°W
Report Text: SBBU 231400Z 05009KT CAVOK 27/20 Q1019
Loading
Personal Weather Stations






























Interactive Weather Map
Tropical Storm Tracking
New forecast layout! Learn more

10-Day Weather Forecast

Advertisements
Track Severe Weather on mobile